Voskresensk, Russia
Current Conditions -  °F | °C
As of 8:00 AM on Saturday 22 Nov 2014 (Local Time) from UUWW Reporting Station
Clear Clear  
Wind Chill: 13°   Ceiling: Unl
Heat Index: 19°   Visibility: 6mi
Dew Point: 16°   Wind: 4mph
Humidity: 86%   Direction: 220°SW
Pressure: 30.42"   Gusts: NA
Location:  55.27°N, 36.74°E
Report Text: UUWW 220500Z 22002MPS CAVOK M07/M09 Q1030 24190055 NOSIG
Loading
Personal Weather Stations






























Interactive Weather Map New forecast layout! Learn more

10-Day Weather Forecast

Advertisements
Track Severe Weather on mobile